sensor_id;sensor_type;location;lat;lon;timestamp;P1;durP1;ratioP1;P2;durP2;ratioP2
16320;SDS011;8269;50.990;4.494;2023-04-16T00:00:57;6.47;;;2.80;;
16320;SDS011;8269;50.990;4.494;2023-04-16T00:03:23;8.90;;;3.63;;
16320;SDS011;8269;50.990;4.494;2023-04-16T00:05:49;7.80;;;3.00;;
16320;SDS011;8269;50.990;4.494;2023-04-16T00:08:19;7.47;;;3.23;;
16320;SDS011;8269;50.990;4.494;2023-04-16T00:10:45;8.20;;;3.27;;
16320;SDS011;8269;50.990;4.494;2023-04-16T00:13:11;8.40;;;3.17;;
16320;SDS011;8269;50.990;4.494;2023-04-16T00:15:37;8.20;;;3.10;;
16320;SDS011;8269;50.990;4.494;2023-04-16T00:18:03;11.63;;;3.60;;
16320;SDS011;8269;50.990;4.494;2023-04-16T00:20:29;4.90;;;3.00;;
16320;SDS011;8269;50.990;4.494;2023-04-16T00:22:55;7.43;;;3.30;;
16320;SDS011;8269;50.990;4.494;2023-04-16T00:25:21;8.40;;;3.10;;
16320;SDS011;8269;50.990;4.494;2023-04-16T00:27:47;8.87;;;3.10;;
16320;SDS011;8269;50.990;4.494;2023-04-16T00:30:14;6.83;;;3.07;;
16320;SDS011;8269;50.990;4.494;2023-04-16T00:32:40;6.60;;;3.20;;
16320;SDS011;8269;50.990;4.494;2023-04-16T00:35:06;7.00;;;3.10;;
16320;SDS011;8269;50.990;4.494;2023-04-16T00:37:32;6.90;;;3.80;;
16320;SDS011;8269;50.990;4.494;2023-04-16T00:39:58;7.10;;;3.47;;
16320;SDS011;8269;50.990;4.494;2023-04-16T00:42:25;9.17;;;4.10;;
16320;SDS011;8269;50.990;4.494;2023-04-16T00:44:51;7.70;;;4.33;;
16320;SDS011;8269;50.990;4.494;2023-04-16T00:47:18;7.53;;;4.13;;
16320;SDS011;8269;50.990;4.494;2023-04-16T00:49:44;5.70;;;3.70;;
16320;SDS011;8269;50.990;4.494;2023-04-16T00:52:10;5.53;;;3.80;;
16320;SDS011;8269;50.990;4.494;2023-04-16T00:54:37;6.73;;;3.63;;
16320;SDS011;8269;50.990;4.494;2023-04-16T00:57:03;8.67;;;3.80;;
16320;SDS011;8269;50.990;4.494;2023-04-16T00:59:29;6.30;;;4.10;;
16320;SDS011;8269;50.990;4.494;2023-04-16T01:01:55;6.70;;;3.83;;
16320;SDS011;8269;50.990;4.494;2023-04-16T01:04:21;6.10;;;3.90;;
16320;SDS011;8269;50.990;4.494;2023-04-16T01:06:47;5.70;;;4.10;;
16320;SDS011;8269;50.990;4.494;2023-04-16T01:09:13;7.80;;;4.00;;
16320;SDS011;8269;50.990;4.494;2023-04-16T01:11:39;7.40;;;3.80;;
16320;SDS011;8269;50.990;4.494;2023-04-16T01:14:05;5.87;;;3.60;;
16320;SDS011;8269;50.990;4.494;2023-04-16T01:16:31;6.93;;;3.80;;
16320;SDS011;8269;50.990;4.494;2023-04-16T01:18:58;8.17;;;4.03;;
16320;SDS011;8269;50.990;4.494;2023-04-16T01:21:24;8.07;;;3.57;;
16320;SDS011;8269;50.990;4.494;2023-04-16T01:23:50;5.07;;;3.43;;
16320;SDS011;8269;50.990;4.494;2023-04-16T01:26:16;4.77;;;3.33;;
16320;SDS011;8269;50.990;4.494;2023-04-16T01:28:42;7.00;;;3.33;;
16320;SDS011;8269;50.990;4.494;2023-04-16T01:31:08;6.90;;;3.17;;
16320;SDS011;8269;50.990;4.494;2023-04-16T01:33:34;6.90;;;3.00;;
16320;SDS011;8269;50.990;4.494;2023-04-16T01:36:00;5.67;;;3.03;;
16320;SDS011;8269;50.990;4.494;2023-04-16T01:38:26;4.87;;;2.60;;
16320;SDS011;8269;50.990;4.494;2023-04-16T01:40:56;5.60;;;2.87;;
16320;SDS011;8269;50.990;4.494;2023-04-16T01:43:23;7.97;;;3.10;;
16320;SDS011;8269;50.990;4.494;2023-04-16T01:45:49;5.47;;;2.80;;
16320;SDS011;8269;50.990;4.494;2023-04-16T01:48:15;8.53;;;3.00;;
16320;SDS011;8269;50.990;4.494;2023-04-16T01:50:41;8.07;;;3.40;;
16320;SDS011;8269;50.990;4.494;2023-04-16T01:53:07;5.93;;;2.73;;
16320;SDS011;8269;50.990;4.494;2023-04-16T01:55:33;4.60;;;2.40;;
16320;SDS011;8269;50.990;4.494;2023-04-16T01:57:59;6.63;;;3.10;;
16320;SDS011;8269;50.990;4.494;2023-04-16T02:00:25;6.57;;;2.70;;
16320;SDS011;8269;50.990;4.494;2023-04-16T02:02:53;8.00;;;3.10;;
16320;SDS011;8269;50.990;4.494;2023-04-16T02:05:19;6.57;;;3.10;;
16320;SDS011;8269;50.990;4.494;2023-04-16T02:07:45;6.60;;;2.70;;
16320;SDS011;8269;50.990;4.494;2023-04-16T02:10:11;6.00;;;2.70;;
16320;SDS011;8269;50.990;4.494;2023-04-16T02:12:37;8.40;;;2.90;;
16320;SDS011;8269;50.990;4.494;2023-04-16T02:15:03;5.80;;;2.60;;
16320;SDS011;8269;50.990;4.494;2023-04-16T02:17:29;4.53;;;2.83;;
16320;SDS011;8269;50.990;4.494;2023-04-16T02:19:55;8.73;;;3.07;;
16320;SDS011;8269;50.990;4.494;2023-04-16T02:22:22;6.33;;;3.10;;
16320;SDS011;8269;50.990;4.494;2023-04-16T02:24:48;8.83;;;3.40;;
16320;SDS011;8269;50.990;4.494;2023-04-16T02:27:15;6.67;;;2.97;;
16320;SDS011;8269;50.990;4.494;2023-04-16T02:29:41;5.93;;;3.03;;
16320;SDS011;8269;50.990;4.494;2023-04-16T02:32:07;7.10;;;3.00;;
16320;SDS011;8269;50.990;4.494;2023-04-16T02:34:33;5.27;;;3.17;;
16320;SDS011;8269;50.990;4.494;2023-04-16T02:36:59;5.97;;;2.67;;
16320;SDS011;8269;50.990;4.494;2023-04-16T02:39:25;7.73;;;3.00;;
16320;SDS011;8269;50.990;4.494;2023-04-16T02:41:51;8.87;;;2.63;;
16320;SDS011;8269;50.990;4.494;2023-04-16T02:44:18;6.13;;;3.00;;
16320;SDS011;8269;50.990;4.494;2023-04-16T02:46:44;7.23;;;3.00;;
16320;SDS011;8269;50.990;4.494;2023-04-16T02:49:10;6.63;;;2.80;;
16320;SDS011;8269;50.990;4.494;2023-04-16T02:51:36;8.43;;;2.90;;
16320;SDS011;8269;50.990;4.494;2023-04-16T02:54:02;7.63;;;3.03;;
16320;SDS011;8269;50.990;4.494;2023-04-16T02:56:28;9.07;;;3.10;;
16320;SDS011;8269;50.990;4.494;2023-04-16T02:58:54;7.27;;;3.37;;
16320;SDS011;8269;50.990;4.494;2023-04-16T03:01:20;7.97;;;3.70;;
16320;SDS011;8269;50.990;4.494;2023-04-16T03:03:46;6.50;;;3.47;;
16320;SDS011;8269;50.990;4.494;2023-04-16T03:06:12;7.90;;;3.87;;
16320;SDS011;8269;50.990;4.494;2023-04-16T03:08:38;7.27;;;4.07;;
16320;SDS011;8269;50.990;4.494;2023-04-16T03:11:04;8.53;;;4.20;;
16320;SDS011;8269;50.990;4.494;2023-04-16T03:13:31;6.63;;;4.43;;
16320;SDS011;8269;50.990;4.494;2023-04-16T03:15:57;8.57;;;4.70;;
16320;SDS011;8269;50.990;4.494;2023-04-16T03:18:23;6.70;;;5.00;;
16320;SDS011;8269;50.990;4.494;2023-04-16T03:20:52;9.73;;;6.00;;
16320;SDS011;8269;50.990;4.494;2023-04-16T03:23:18;8.17;;;5.67;;
16320;SDS011;8269;50.990;4.494;2023-04-16T03:25:45;10.20;;;6.10;;
16320;SDS011;8269;50.990;4.494;2023-04-16T03:28:12;9.17;;;5.90;;
16320;SDS011;8269;50.990;4.494;2023-04-16T03:30:38;7.43;;;6.03;;
16320;SDS011;8269;50.990;4.494;2023-04-16T03:33:04;11.33;;;6.53;;
16320;SDS011;8269;50.990;4.494;2023-04-16T03:35:30;15.47;;;7.37;;
16320;SDS011;8269;50.990;4.494;2023-04-16T03:37:57;12.53;;;6.90;;
16320;SDS011;8269;50.990;4.494;2023-04-16T03:40:23;10.30;;;7.03;;
16320;SDS011;8269;50.990;4.494;2023-04-16T03:42:50;8.87;;;7.03;;
16320;SDS011;8269;50.990;4.494;2023-04-16T03:45:16;13.67;;;8.57;;
16320;SDS011;8269;50.990;4.494;2023-04-16T03:47:42;13.97;;;9.17;;
16320;SDS011;8269;50.990;4.494;2023-04-16T03:50:08;12.20;;;7.63;;
16320;SDS011;8269;50.990;4.494;2023-04-16T03:52:35;8.40;;;7.27;;
16320;SDS011;8269;50.990;4.494;2023-04-16T03:55:01;9.20;;;7.10;;
16320;SDS011;8269;50.990;4.494;2023-04-16T03:57:28;10.00;;;6.50;;
16320;SDS011;8269;50.990;4.494;2023-04-16T03:59:54;9.80;;;6.13;;
16320;SDS011;8269;50.990;4.494;2023-04-16T04:02:20;11.03;;;6.83;;
16320;SDS011;8269;50.990;4.494;2023-04-16T04:04:46;12.07;;;6.33;;
16320;SDS011;8269;50.990;4.494;2023-04-16T04:07:12;12.60;;;6.67;;
16320;SDS011;8269;50.990;4.494;2023-04-16T04:09:38;9.53;;;6.77;;
16320;SDS011;8269;50.990;4.494;2023-04-16T04:12:04;12.00;;;6.83;;
16320;SDS011;8269;50.990;4.494;2023-04-16T04:14:30;11.07;;;6.80;;
16320;SDS011;8269;50.990;4.494;2023-04-16T04:16:56;11.93;;;6.67;;
16320;SDS011;8269;50.990;4.494;2023-04-16T04:19:22;11.77;;;7.50;;
16320;SDS011;8269;50.990;4.494;2023-04-16T04:21:48;15.07;;;7.53;;
16320;SDS011;8269;50.990;4.494;2023-04-16T04:24:14;10.73;;;8.20;;
16320;SDS011;8269;50.990;4.494;2023-04-16T04:26:40;15.30;;;8.87;;
16320;SDS011;8269;50.990;4.494;2023-04-16T04:29:06;14.70;;;9.20;;
16320;SDS011;8269;50.990;4.494;2023-04-16T04:31:32;11.70;;;8.17;;
16320;SDS011;8269;50.990;4.494;2023-04-16T04:33:58;13.83;;;9.60;;
16320;SDS011;8269;50.990;4.494;2023-04-16T04:36:24;13.57;;;9.60;;
16320;SDS011;8269;50.990;4.494;2023-04-16T04:38:51;14.60;;;9.57;;
16320;SDS011;8269;50.990;4.494;2023-04-16T04:41:17;16.00;;;10.20;;
16320;SDS011;8269;50.990;4.494;2023-04-16T04:43:43;15.43;;;10.67;;
16320;SDS011;8269;50.990;4.494;2023-04-16T04:46:09;17.20;;;10.83;;
16320;SDS011;8269;50.990;4.494;2023-04-16T04:48:35;17.87;;;10.63;;
16320;SDS011;8269;50.990;4.494;2023-04-16T04:51:01;17.73;;;11.27;;
16320;SDS011;8269;50.990;4.494;2023-04-16T04:53:28;19.03;;;11.87;;
16320;SDS011;8269;50.990;4.494;2023-04-16T04:55:54;17.23;;;12.47;;
16320;SDS011;8269;50.990;4.494;2023-04-16T04:58:20;14.87;;;11.23;;
16320;SDS011;8269;50.990;4.494;2023-04-16T05:00:46;16.73;;;11.97;;
16320;SDS011;8269;50.990;4.494;2023-04-16T05:03:17;17.30;;;12.20;;
16320;SDS011;8269;50.990;4.494;2023-04-16T05:05:44;17.07;;;12.07;;
16320;SDS011;8269;50.990;4.494;2023-04-16T05:08:10;15.57;;;11.60;;
16320;SDS011;8269;50.990;4.494;2023-04-16T05:10:36;15.03;;;11.00;;
16320;SDS011;8269;50.990;4.494;2023-04-16T05:13:02;16.33;;;10.30;;
16320;SDS011;8269;50.990;4.494;2023-04-16T05:15:28;14.73;;;9.93;;
16320;SDS011;8269;50.990;4.494;2023-04-16T05:17:54;14.77;;;8.97;;
16320;SDS011;8269;50.990;4.494;2023-04-16T05:20:21;14.07;;;8.47;;
16320;SDS011;8269;50.990;4.494;2023-04-16T05:22:50;13.60;;;8.07;;
16320;SDS011;8269;50.990;4.494;2023-04-16T05:25:16;14.00;;;8.17;;
16320;SDS011;8269;50.990;4.494;2023-04-16T05:27:42;14.70;;;7.70;;
16320;SDS011;8269;50.990;4.494;2023-04-16T05:30:09;12.43;;;7.53;;
16320;SDS011;8269;50.990;4.494;2023-04-16T05:32:35;9.37;;;6.30;;
16320;SDS011;8269;50.990;4.494;2023-04-16T05:35:01;8.30;;;6.17;;
16320;SDS011;8269;50.990;4.494;2023-04-16T05:37:27;11.03;;;6.20;;
16320;SDS011;8269;50.990;4.494;2023-04-16T05:39:53;12.23;;;5.77;;
16320;SDS011;8269;50.990;4.494;2023-04-16T05:42:19;9.00;;;6.00;;
16320;SDS011;8269;50.990;4.494;2023-04-16T05:44:45;9.90;;;5.47;;
16320;SDS011;8269;50.990;4.494;2023-04-16T05:47:11;8.60;;;5.17;;
16320;SDS011;8269;50.990;4.494;2023-04-16T05:49:37;12.30;;;5.20;;
16320;SDS011;8269;50.990;4.494;2023-04-16T05:52:03;7.40;;;4.33;;
16320;SDS011;8269;50.990;4.494;2023-04-16T05:54:30;9.10;;;4.93;;
16320;SDS011;8269;50.990;4.494;2023-04-16T05:56:55;9.10;;;5.00;;
16320;SDS011;8269;50.990;4.494;2023-04-16T05:59:21;10.00;;;5.50;;
16320;SDS011;8269;50.990;4.494;2023-04-16T06:01:47;9.73;;;5.07;;
16320;SDS011;8269;50.990;4.494;2023-04-16T06:04:13;10.23;;;5.27;;
16320;SDS011;8269;50.990;4.494;2023-04-16T06:06:38;14.07;;;6.00;;
16320;SDS011;8269;50.990;4.494;2023-04-16T06:09:04;12.60;;;6.73;;
16320;SDS011;8269;50.990;4.494;2023-04-16T06:11:30;12.83;;;7.43;;
16320;SDS011;8269;50.990;4.494;2023-04-16T06:13:55;12.00;;;6.90;;
16320;SDS011;8269;50.990;4.494;2023-04-16T06:16:21;13.63;;;8.07;;
16320;SDS011;8269;50.990;4.494;2023-04-16T06:18:46;13.47;;;8.57;;
16320;SDS011;8269;50.990;4.494;2023-04-16T06:21:12;14.03;;;8.70;;
16320;SDS011;8269;50.990;4.494;2023-04-16T06:23:38;15.53;;;9.07;;
16320;SDS011;8269;50.990;4.494;2023-04-16T06:26:04;15.27;;;10.10;;
16320;SDS011;8269;50.990;4.494;2023-04-16T06:28:30;15.70;;;9.37;;
16320;SDS011;8269;50.990;4.494;2023-04-16T06:30:55;14.43;;;10.40;;
16320;SDS011;8269;50.990;4.494;2023-04-16T06:33:21;21.17;;;14.27;;
16320;SDS011;8269;50.990;4.494;2023-04-16T06:35:47;14.63;;;10.30;;
16320;SDS011;8269;50.990;4.494;2023-04-16T06:38:13;16.67;;;11.27;;
16320;SDS011;8269;50.990;4.494;2023-04-16T06:40:39;15.77;;;11.13;;
16320;SDS011;8269;50.990;4.494;2023-04-16T06:43:05;16.10;;;10.07;;
16320;SDS011;8269;50.990;4.494;2023-04-16T06:45:30;16.83;;;9.27;;
16320;SDS011;8269;50.990;4.494;2023-04-16T06:47:56;14.30;;;9.37;;
16320;SDS011;8269;50.990;4.494;2023-04-16T06:50:27;15.20;;;9.50;;
16320;SDS011;8269;50.990;4.494;2023-04-16T06:52:55;16.37;;;9.70;;
16320;SDS011;8269;50.990;4.494;2023-04-16T06:55:21;16.57;;;9.07;;
16320;SDS011;8269;50.990;4.494;2023-04-16T06:57:46;10.27;;;8.07;;
16320;SDS011;8269;50.990;4.494;2023-04-16T07:00:12;16.20;;;9.43;;
16320;SDS011;8269;50.990;4.494;2023-04-16T07:02:38;14.70;;;10.40;;
16320;SDS011;8269;50.990;4.494;2023-04-16T07:05:03;14.43;;;8.87;;
16320;SDS011;8269;50.990;4.494;2023-04-16T07:07:29;14.63;;;9.13;;
16320;SDS011;8269;50.990;4.494;2023-04-16T07:09:57;19.50;;;10.90;;
16320;SDS011;8269;50.990;4.494;2023-04-16T07:12:23;17.27;;;10.43;;
16320;SDS011;8269;50.990;4.494;2023-04-16T07:14:48;18.93;;;10.47;;
16320;SDS011;8269;50.990;4.494;2023-04-16T07:17:14;17.03;;;10.83;;
16320;SDS011;8269;50.990;4.494;2023-04-16T07:19:40;17.03;;;9.70;;
16320;SDS011;8269;50.990;4.494;2023-04-16T07:22:05;16.33;;;10.33;;
16320;SDS011;8269;50.990;4.494;2023-04-16T07:24:32;15.90;;;9.90;;
16320;SDS011;8269;50.990;4.494;2023-04-16T07:26:57;14.07;;;10.27;;
16320;SDS011;8269;50.990;4.494;2023-04-16T07:29:23;18.13;;;11.30;;
16320;SDS011;8269;50.990;4.494;2023-04-16T07:31:48;16.23;;;11.07;;
16320;SDS011;8269;50.990;4.494;2023-04-16T07:34:14;20.97;;;13.40;;
16320;SDS011;8269;50.990;4.494;2023-04-16T07:36:40;19.97;;;14.43;;
16320;SDS011;8269;50.990;4.494;2023-04-16T07:39:06;18.10;;;11.20;;
16320;SDS011;8269;50.990;4.494;2023-04-16T07:41:31;18.30;;;11.40;;
16320;SDS011;8269;50.990;4.494;2023-04-16T07:43:57;22.77;;;12.90;;
16320;SDS011;8269;50.990;4.494;2023-04-16T07:46:23;15.73;;;10.63;;
16320;SDS011;8269;50.990;4.494;2023-04-16T07:48:48;24.53;;;14.93;;
16320;SDS011;8269;50.990;4.494;2023-04-16T07:51:14;17.13;;;11.30;;
16320;SDS011;8269;50.990;4.494;2023-04-16T07:53:40;18.57;;;12.27;;
16320;SDS011;8269;50.990;4.494;2023-04-16T07:56:07;18.00;;;12.43;;
16320;SDS011;8269;50.990;4.494;2023-04-16T07:58:33;16.33;;;12.97;;
16320;SDS011;8269;50.990;4.494;2023-04-16T08:00:58;18.37;;;13.27;;
16320;SDS011;8269;50.990;4.494;2023-04-16T08:03:25;19.93;;;12.50;;
16320;SDS011;8269;50.990;4.494;2023-04-16T08:05:51;18.70;;;12.70;;
16320;SDS011;8269;50.990;4.494;2023-04-16T08:08:16;23.90;;;14.50;;
16320;SDS011;8269;50.990;4.494;2023-04-16T08:10:42;19.40;;;13.47;;
16320;SDS011;8269;50.990;4.494;2023-04-16T08:13:08;19.90;;;13.90;;
16320;SDS011;8269;50.990;4.494;2023-04-16T08:15:33;18.93;;;14.50;;
16320;SDS011;8269;50.990;4.494;2023-04-16T08:17:59;20.20;;;13.67;;
16320;SDS011;8269;50.990;4.494;2023-04-16T08:20:24;18.00;;;13.23;;
16320;SDS011;8269;50.990;4.494;2023-04-16T08:22:50;22.17;;;14.17;;
16320;SDS011;8269;50.990;4.494;2023-04-16T08:25:18;21.87;;;14.63;;
16320;SDS011;8269;50.990;4.494;2023-04-16T08:27:44;19.67;;;14.47;;
16320;SDS011;8269;50.990;4.494;2023-04-16T08:30:10;24.20;;;16.60;;
16320;SDS011;8269;50.990;4.494;2023-04-16T08:32:36;26.70;;;17.00;;
16320;SDS011;8269;50.990;4.494;2023-04-16T08:35:01;27.70;;;15.57;;
16320;SDS011;8269;50.990;4.494;2023-04-16T08:37:27;21.97;;;15.50;;
16320;SDS011;8269;50.990;4.494;2023-04-16T08:39:53;23.10;;;16.07;;
16320;SDS011;8269;50.990;4.494;2023-04-16T08:42:28;28.67;;;15.23;;
16320;SDS011;8269;50.990;4.494;2023-04-16T08:45:08;26.83;;;16.40;;
16320;SDS011;8269;50.990;4.494;2023-04-16T08:47:45;26.27;;;16.47;;
16320;SDS011;8269;50.990;4.494;2023-04-16T08:50:13;22.87;;;15.13;;
16320;SDS011;8269;50.990;4.494;2023-04-16T08:52:56;22.07;;;14.70;;
16320;SDS011;8269;50.990;4.494;2023-04-16T08:55:31;21.40;;;14.90;;
16320;SDS011;8269;50.990;4.494;2023-04-16T08:58:13;26.23;;;15.63;;
16320;SDS011;8269;50.990;4.494;2023-04-16T09:00:42;25.60;;;15.90;;
16320;SDS011;8269;50.990;4.494;2023-04-16T09:03:08;25.63;;;16.50;;
16320;SDS011;8269;50.990;4.494;2023-04-16T09:05:34;23.77;;;14.93;;
16320;SDS011;8269;50.990;4.494;2023-04-16T09:08:01;20.87;;;14.60;;
16320;SDS011;8269;50.990;4.494;2023-04-16T09:10:27;18.10;;;11.93;;
16320;SDS011;8269;50.990;4.494;2023-04-16T09:12:55;22.83;;;14.40;;
16320;SDS011;8269;50.990;4.494;2023-04-16T09:15:21;22.13;;;15.53;;
16320;SDS011;8269;50.990;4.494;2023-04-16T09:17:48;20.87;;;14.93;;
16320;SDS011;8269;50.990;4.494;2023-04-16T09:20:13;22.53;;;14.37;;
16320;SDS011;8269;50.990;4.494;2023-04-16T09:22:39;23.80;;;14.87;;
16320;SDS011;8269;50.990;4.494;2023-04-16T09:25:05;19.37;;;14.80;;
16320;SDS011;8269;50.990;4.494;2023-04-16T09:27:32;18.67;;;13.23;;
16320;SDS011;8269;50.990;4.494;2023-04-16T09:29:57;18.60;;;13.53;;
16320;SDS011;8269;50.990;4.494;2023-04-16T09:32:27;18.77;;;14.27;;
16320;SDS011;8269;50.990;4.494;2023-04-16T09:34:53;19.27;;;12.37;;
16320;SDS011;8269;50.990;4.494;2023-04-16T09:37:26;21.30;;;13.87;;
16320;SDS011;8269;50.990;4.494;2023-04-16T09:39:56;17.77;;;13.47;;
16320;SDS011;8269;50.990;4.494;2023-04-16T09:42:27;19.33;;;13.13;;
16320;SDS011;8269;50.990;4.494;2023-04-16T09:44:54;21.10;;;12.57;;
16320;SDS011;8269;50.990;4.494;2023-04-16T09:47:21;19.87;;;12.83;;
16320;SDS011;8269;50.990;4.494;2023-04-16T09:49:47;20.17;;;13.47;;
16320;SDS011;8269;50.990;4.494;2023-04-16T09:52:13;19.00;;;12.77;;
16320;SDS011;8269;50.990;4.494;2023-04-16T09:54:50;18.77;;;13.13;;
16320;SDS011;8269;50.990;4.494;2023-04-16T09:57:21;23.43;;;13.73;;
16320;SDS011;8269;50.990;4.494;2023-04-16T09:59:51;21.63;;;13.90;;
16320;SDS011;8269;50.990;4.494;2023-04-16T10:02:18;22.60;;;14.60;;
16320;SDS011;8269;50.990;4.494;2023-04-16T10:04:48;19.53;;;15.13;;
16320;SDS011;8269;50.990;4.494;2023-04-16T10:07:15;22.43;;;13.93;;
16320;SDS011;8269;50.990;4.494;2023-04-16T10:09:41;20.23;;;14.70;;
16320;SDS011;8269;50.990;4.494;2023-04-16T10:12:07;29.83;;;21.90;;
16320;SDS011;8269;50.990;4.494;2023-04-16T10:14:33;23.03;;;14.57;;
16320;SDS011;8269;50.990;4.494;2023-04-16T10:16:59;19.43;;;11.30;;
16320;SDS011;8269;50.990;4.494;2023-04-16T10:19:28;22.77;;;11.93;;
16320;SDS011;8269;50.990;4.494;2023-04-16T10:21:56;17.40;;;11.77;;
16320;SDS011;8269;50.990;4.494;2023-04-16T10:24:22;22.53;;;12.70;;
16320;SDS011;8269;50.990;4.494;2023-04-16T10:26:49;20.13;;;12.03;;
16320;SDS011;8269;50.990;4.494;2023-04-16T10:29:19;22.90;;;11.40;;
16320;SDS011;8269;50.990;4.494;2023-04-16T10:31:45;23.03;;;11.43;;
16320;SDS011;8269;50.990;4.494;2023-04-16T10:34:13;20.73;;;12.47;;
16320;SDS011;8269;50.990;4.494;2023-04-16T10:36:40;16.80;;;11.00;;
16320;SDS011;8269;50.990;4.494;2023-04-16T10:39:09;17.33;;;11.20;;
16320;SDS011;8269;50.990;4.494;2023-04-16T10:41:36;18.97;;;12.63;;
16320;SDS011;8269;50.990;4.494;2023-04-16T10:44:03;16.73;;;11.27;;
16320;SDS011;8269;50.990;4.494;2023-04-16T10:46:37;22.00;;;13.20;;
16320;SDS011;8269;50.990;4.494;2023-04-16T10:49:14;17.90;;;12.20;;
16320;SDS011;8269;50.990;4.494;2023-04-16T10:51:56;15.97;;;10.80;;
16320;SDS011;8269;50.990;4.494;2023-04-16T10:54:28;22.87;;;12.83;;
16320;SDS011;8269;50.990;4.494;2023-04-16T10:56:55;21.73;;;12.50;;
16320;SDS011;8269;50.990;4.494;2023-04-16T10:59:22;17.40;;;12.77;;
16320;SDS011;8269;50.990;4.494;2023-04-16T11:01:53;21.27;;;13.23;;
16320;SDS011;8269;50.990;4.494;2023-04-16T11:07:01;20.80;;;13.60;;
16320;SDS011;8269;50.990;4.494;2023-04-16T11:12:22;17.47;;;12.70;;
16320;SDS011;8269;50.990;4.494;2023-04-16T11:14:52;18.00;;;12.83;;
16320;SDS011;8269;50.990;4.494;2023-04-16T11:17:27;21.50;;;13.03;;
16320;SDS011;8269;50.990;4.494;2023-04-16T11:20:04;18.27;;;13.03;;
16320;SDS011;8269;50.990;4.494;2023-04-16T11:22:34;20.17;;;14.03;;
16320;SDS011;8269;50.990;4.494;2023-04-16T11:25:03;17.17;;;13.00;;
16320;SDS011;8269;50.990;4.494;2023-04-16T11:27:29;20.07;;;12.47;;
16320;SDS011;8269;50.990;4.494;2023-04-16T11:29:59;19.87;;;12.57;;
16320;SDS011;8269;50.990;4.494;2023-04-16T11:32:26;19.90;;;12.57;;
16320;SDS011;8269;50.990;4.494;2023-04-16T11:34:55;18.97;;;12.70;;
16320;SDS011;8269;50.990;4.494;2023-04-16T11:37:30;26.33;;;14.53;;
16320;SDS011;8269;50.990;4.494;2023-04-16T11:39:58;23.30;;;16.80;;
16320;SDS011;8269;50.990;4.494;2023-04-16T11:42:24;22.87;;;14.57;;
16320;SDS011;8269;50.990;4.494;2023-04-16T11:44:55;24.40;;;14.83;;
16320;SDS011;8269;50.990;4.494;2023-04-16T11:47:22;20.53;;;14.07;;
16320;SDS011;8269;50.990;4.494;2023-04-16T11:49:48;17.60;;;13.40;;
16320;SDS011;8269;50.990;4.494;2023-04-16T11:52:35;20.83;;;13.77;;
16320;SDS011;8269;50.990;4.494;2023-04-16T11:55:01;20.83;;;14.30;;
16320;SDS011;8269;50.990;4.494;2023-04-16T11:57:30;20.63;;;14.53;;
16320;SDS011;8269;50.990;4.494;2023-04-16T11:59:56;22.20;;;14.73;;
16320;SDS011;8269;50.990;4.494;2023-04-16T12:02:33;23.30;;;15.23;;
16320;SDS011;8269;50.990;4.494;2023-04-16T12:05:00;23.23;;;15.50;;
16320;SDS011;8269;50.990;4.494;2023-04-16T12:07:27;25.57;;;17.93;;
16320;SDS011;8269;50.990;4.494;2023-04-16T12:10:02;23.67;;;16.10;;
16320;SDS011;8269;50.990;4.494;2023-04-16T12:12:30;20.50;;;16.07;;
16320;SDS011;8269;50.990;4.494;2023-04-16T12:14:56;22.23;;;17.00;;
16320;SDS011;8269;50.990;4.494;2023-04-16T12:17:27;25.43;;;19.20;;
16320;SDS011;8269;50.990;4.494;2023-04-16T12:19:58;21.63;;;15.47;;
16320;SDS011;8269;50.990;4.494;2023-04-16T12:22:28;19.60;;;15.20;;
16320;SDS011;8269;50.990;4.494;2023-04-16T12:24:57;20.33;;;15.60;;
16320;SDS011;8269;50.990;4.494;2023-04-16T12:27:23;17.73;;;14.10;;
16320;SDS011;8269;50.990;4.494;2023-04-16T12:30:05;23.67;;;14.43;;
16320;SDS011;8269;50.990;4.494;2023-04-16T12:32:31;21.43;;;14.90;;
16320;SDS011;8269;50.990;4.494;2023-04-16T12:34:57;20.23;;;15.63;;
16320;SDS011;8269;50.990;4.494;2023-04-16T12:37:23;19.17;;;16.07;;
16320;SDS011;8269;50.990;4.494;2023-04-16T12:39:49;19.10;;;15.37;;
16320;SDS011;8269;50.990;4.494;2023-04-16T12:42:15;19.73;;;14.70;;
16320;SDS011;8269;50.990;4.494;2023-04-16T12:44:40;18.90;;;14.00;;
16320;SDS011;8269;50.990;4.494;2023-04-16T12:47:06;22.53;;;13.43;;
16320;SDS011;8269;50.990;4.494;2023-04-16T12:49:32;21.87;;;13.63;;
16320;SDS011;8269;50.990;4.494;2023-04-16T12:51:57;18.93;;;14.50;;
16320;SDS011;8269;50.990;4.494;2023-04-16T12:54:23;21.73;;;14.60;;
16320;SDS011;8269;50.990;4.494;2023-04-16T12:56:52;20.93;;;14.63;;
16320;SDS011;8269;50.990;4.494;2023-04-16T12:59:18;16.23;;;13.63;;
16320;SDS011;8269;50.990;4.494;2023-04-16T13:01:43;21.70;;;14.73;;
16320;SDS011;8269;50.990;4.494;2023-04-16T13:04:09;26.23;;;16.27;;
16320;SDS011;8269;50.990;4.494;2023-04-16T13:06:35;26.07;;;15.57;;
16320;SDS011;8269;50.990;4.494;2023-04-16T13:09:01;18.93;;;14.93;;
16320;SDS011;8269;50.990;4.494;2023-04-16T13:11:28;21.30;;;14.23;;
16320;SDS011;8269;50.990;4.494;2023-04-16T13:13:54;17.17;;;13.47;;
16320;SDS011;8269;50.990;4.494;2023-04-16T13:16:20;21.33;;;13.53;;
16320;SDS011;8269;50.990;4.494;2023-04-16T13:18:45;20.03;;;13.83;;
16320;SDS011;8269;50.990;4.494;2023-04-16T13:21:11;20.10;;;13.87;;
16320;SDS011;8269;50.990;4.494;2023-04-16T13:23:37;16.10;;;13.00;;
16320;SDS011;8269;50.990;4.494;2023-04-16T13:26:02;18.93;;;13.70;;
16320;SDS011;8269;50.990;4.494;2023-04-16T13:28:28;18.57;;;13.70;;
16320;SDS011;8269;50.990;4.494;2023-04-16T13:30:53;19.10;;;13.23;;
16320;SDS011;8269;50.990;4.494;2023-04-16T13:33:19;20.80;;;13.70;;
16320;SDS011;8269;50.990;4.494;2023-04-16T13:35:46;21.37;;;13.50;;
16320;SDS011;8269;50.990;4.494;2023-04-16T13:38:15;17.63;;;12.90;;
16320;SDS011;8269;50.990;4.494;2023-04-16T13:40:41;22.13;;;14.20;;
16320;SDS011;8269;50.990;4.494;2023-04-16T13:43:07;17.97;;;11.97;;
16320;SDS011;8269;50.990;4.494;2023-04-16T13:45:33;18.20;;;13.33;;
16320;SDS011;8269;50.990;4.494;2023-04-16T13:47:58;20.90;;;14.20;;
16320;SDS011;8269;50.990;4.494;2023-04-16T13:50:24;15.97;;;12.70;;
16320;SDS011;8269;50.990;4.494;2023-04-16T13:52:50;17.07;;;14.03;;
16320;SDS011;8269;50.990;4.494;2023-04-16T13:55:16;20.73;;;14.87;;
16320;SDS011;8269;50.990;4.494;2023-04-16T13:57:44;20.33;;;16.10;;
16320;SDS011;8269;50.990;4.494;2023-04-16T14:00:11;19.30;;;15.30;;
16320;SDS011;8269;50.990;4.494;2023-04-16T14:02:38;21.00;;;15.20;;
16320;SDS011;8269;50.990;4.494;2023-04-16T14:05:04;20.77;;;14.57;;
16320;SDS011;8269;50.990;4.494;2023-04-16T14:07:30;17.23;;;14.20;;
16320;SDS011;8269;50.990;4.494;2023-04-16T14:09:56;18.77;;;13.97;;
16320;SDS011;8269;50.990;4.494;2023-04-16T14:12:22;18.00;;;13.97;;
16320;SDS011;8269;50.990;4.494;2023-04-16T14:14:47;16.23;;;13.27;;
16320;SDS011;8269;50.990;4.494;2023-04-16T14:17:13;18.23;;;13.80;;
16320;SDS011;8269;50.990;4.494;2023-04-16T14:19:39;19.57;;;13.77;;
16320;SDS011;8269;50.990;4.494;2023-04-16T14:22:07;21.07;;;13.50;;
16320;SDS011;8269;50.990;4.494;2023-04-16T14:24:32;20.00;;;13.47;;
16320;SDS011;8269;50.990;4.494;2023-04-16T14:26:58;19.13;;;13.47;;
16320;SDS011;8269;50.990;4.494;2023-04-16T14:29:23;22.03;;;13.33;;
16320;SDS011;8269;50.990;4.494;2023-04-16T14:31:49;19.17;;;13.03;;
16320;SDS011;8269;50.990;4.494;2023-04-16T14:34:15;18.00;;;12.63;;
16320;SDS011;8269;50.990;4.494;2023-04-16T14:36:42;17.23;;;12.57;;
16320;SDS011;8269;50.990;4.494;2023-04-16T14:39:08;16.17;;;12.87;;
16320;SDS011;8269;50.990;4.494;2023-04-16T14:41:35;17.83;;;13.27;;
16320;SDS011;8269;50.990;4.494;2023-04-16T14:44:00;20.23;;;14.33;;
16320;SDS011;8269;50.990;4.494;2023-04-16T14:46:28;18.27;;;13.90;;